createdAt,value
2022-11-19T00:00:50.203Z,4.70
2022-11-19T00:03:18.281Z,3.33
2022-11-19T00:05:46.204Z,4.63
2022-11-19T00:08:13.261Z,4.40
2022-11-19T00:10:39.764Z,4.65
2022-11-19T00:13:06.822Z,5.15
2022-11-19T00:15:36.989Z,4.65
2022-11-19T00:18:03.701Z,4.07
2022-11-19T00:20:30.229Z,4.07
2022-11-19T00:22:59.471Z,3.95
2022-11-19T00:25:27.288Z,5.03
2022-11-19T00:27:53.547Z,4.47
2022-11-19T00:30:46.449Z,4.13
2022-11-19T00:33:06.495Z,4.10
2022-11-19T00:35:32.727Z,3.75
2022-11-19T00:37:58.990Z,4.28
2022-11-19T00:40:25.217Z,6.97
2022-11-19T00:43:10.017Z,5.43
2022-11-19T00:45:36.244Z,3.67
2022-11-19T00:48:02.558Z,4.25
2022-11-19T00:50:28.785Z,4.50
2022-11-19T00:52:55.028Z,4.80
2022-11-19T00:55:21.277Z,4.97
2022-11-19T00:57:47.520Z,5.15
2022-11-19T01:00:14.039Z,14.38
2022-11-19T01:02:40.272Z,9.15
2022-11-19T01:05:06.673Z,4.43
2022-11-19T01:07:32.981Z,4.70
2022-11-19T01:09:59.237Z,4.05
2022-11-19T01:12:25.473Z,3.90
2022-11-19T01:14:51.720Z,4.25
2022-11-19T01:17:17.953Z,3.97
2022-11-19T01:19:44.170Z,4.38
2022-11-19T01:22:10.435Z,4.18
2022-11-19T01:24:36.698Z,4.18
2022-11-19T01:27:03.450Z,5.13
2022-11-19T01:29:29.711Z,3.92
2022-11-19T01:31:55.957Z,5.35
2022-11-19T01:34:22.154Z,5.43
2022-11-19T01:36:48.403Z,3.65
2022-11-19T01:39:14.636Z,4.32
2022-11-19T01:41:40.846Z,8.00
2022-11-19T01:44:08.117Z,4.43
2022-11-19T01:46:35.474Z,4.43
2022-11-19T01:49:01.672Z,5.40
2022-11-19T01:51:34.938Z,4.15
2022-11-19T01:54:20.202Z,5.03
2022-11-19T01:56:46.797Z,5.05
2022-11-19T01:59:15.716Z,4.47
2022-11-19T02:01:43.254Z,5.53
2022-11-19T02:04:10.825Z,4.00
2022-11-19T02:06:37.606Z,4.35
2022-11-19T02:09:03.853Z,4.07
2022-11-19T02:11:48.895Z,4.68
2022-11-19T02:14:34.155Z,4.25
2022-11-19T02:17:12.612Z,5.10
2022-11-19T02:19:48.061Z,4.03
2022-11-19T02:22:20.374Z,5.13
2022-11-19T02:24:53.588Z,5.07
2022-11-19T02:27:38.441Z,4.30
2022-11-19T02:30:04.695Z,4.10
2022-11-19T02:32:32.901Z,4.18
2022-11-19T02:35:19.413Z,4.80
2022-11-19T02:37:57.874Z,3.95
2022-11-19T02:40:27.143Z,4.72
2022-11-19T02:42:59.936Z,4.57
2022-11-19T02:45:29.271Z,5.15
2022-11-19T02:48:01.268Z,4.18
2022-11-19T02:50:27.481Z,3.47
2022-11-19T02:52:54.023Z,4.00
2022-11-19T02:55:21.085Z,3.60
2022-11-19T02:57:50.897Z,3.50
2022-11-19T03:00:36.120Z,3.80
2022-11-19T03:03:30.048Z,3.15
2022-11-19T03:06:00.673Z,2.83
2022-11-19T03:08:26.963Z,4.70
2022-11-19T03:11:02.684Z,3.25
2022-11-19T03:14:09.705Z,2.90
2022-11-19T03:16:42.200Z,2.60
2022-11-19T03:19:26.657Z,3.63
2022-11-19T03:21:56.500Z,8.88
2022-11-19T03:24:26.457Z,3.00
2022-11-19T03:27:31.074Z,3.60
2022-11-19T03:29:58.025Z,3.00
2022-11-19T03:34:53.620Z,3.50
2022-11-19T03:37:21.961Z,3.53
2022-11-19T03:39:49.376Z,3.60
2022-11-19T03:42:16.931Z,3.05
2022-11-19T03:44:43.144Z,3.60
2022-11-19T03:47:14.981Z,3.17
2022-11-19T03:49:44.608Z,18.85
2022-11-19T03:52:10.857Z,6.57
2022-11-19T03:54:38.197Z,7.20
2022-11-19T03:57:06.007Z,4.53
2022-11-19T03:59:32.290Z,5.63
2022-11-19T04:02:00.714Z,4.70
2022-11-19T04:04:37.230Z,5.57
2022-11-19T04:07:04.477Z,7.60
2022-11-19T04:09:30.759Z,7.70
2022-11-19T04:11:56.986Z,11.48
2022-11-19T04:14:23.221Z,6.30
2022-11-19T04:16:49.531Z,11.35
2022-11-19T04:19:18.091Z,6.50
2022-11-19T04:21:44.691Z,57.88
2022-11-19T04:24:11.110Z,60.42
2022-11-19T04:26:37.362Z,13.40
2022-11-19T04:29:03.646Z,7.18
2022-11-19T04:31:30.056Z,5.60
2022-11-19T04:33:56.343Z,7.45
2022-11-19T04:36:22.701Z,4.93
2022-11-19T04:38:48.983Z,6.30
2022-11-19T04:41:15.234Z,6.63
2022-11-19T04:43:41.503Z,5.85
2022-11-19T04:46:07.857Z,4.70
2022-11-19T04:48:34.119Z,5.43
2022-11-19T04:51:00.384Z,5.10
2022-11-19T04:53:26.728Z,4.88
2022-11-19T04:55:52.982Z,4.55
2022-11-19T04:58:19.223Z,4.60
2022-11-19T05:00:45.502Z,5.10
2022-11-19T05:03:11.758Z,4.70
2022-11-19T05:05:37.994Z,5.85
2022-11-19T05:08:04.327Z,4.35
2022-11-19T05:10:30.567Z,4.32
2022-11-19T05:12:56.772Z,4.55
2022-11-19T05:15:23.211Z,4.07
2022-11-19T05:17:49.518Z,4.25
2022-11-19T05:20:15.950Z,4.10
2022-11-19T05:22:42.225Z,4.07
2022-11-19T05:25:08.585Z,14.60
2022-11-19T05:27:35.286Z,9.18
2022-11-19T05:30:01.527Z,16.30
2022-11-19T05:32:27.735Z,7.13
2022-11-19T05:34:53.949Z,7.40
2022-11-19T05:37:20.164Z,4.35
2022-11-19T05:39:46.444Z,4.00
2022-11-19T05:42:12.817Z,3.42
2022-11-19T05:44:39.040Z,3.97
2022-11-19T05:47:05.257Z,5.30
2022-11-19T05:49:31.464Z,4.97
2022-11-19T05:51:57.737Z,5.65
2022-11-19T05:54:23.995Z,5.85
2022-11-19T05:56:50.344Z,6.25
2022-11-19T05:59:16.575Z,6.70
2022-11-19T06:01:42.809Z,6.35
2022-11-19T06:04:09.797Z,5.75
2022-11-19T06:09:02.426Z,4.90
2022-11-19T06:11:47.200Z,5.40
2022-11-19T06:14:19.198Z,5.38
2022-11-19T06:16:45.421Z,4.72
2022-11-19T06:19:11.965Z,4.90
2022-11-19T06:21:38.203Z,5.55
2022-11-19T06:24:04.630Z,4.40
2022-11-19T06:26:30.867Z,4.50
2022-11-19T06:28:57.109Z,8.05
2022-11-19T06:31:23.433Z,4.03
2022-11-19T06:33:49.867Z,4.55
2022-11-19T06:36:16.109Z,4.65
2022-11-19T06:38:42.334Z,3.67
2022-11-19T06:41:08.555Z,3.80
2022-11-19T06:43:34.790Z,4.72
2022-11-19T06:46:01.039Z,4.18
2022-11-19T06:48:27.267Z,4.20
2022-11-19T06:50:53.474Z,4.35
2022-11-19T06:53:19.700Z,4.55
2022-11-19T06:55:45.950Z,6.10
2022-11-19T06:58:14.425Z,4.10
2022-11-19T07:00:40.652Z,3.72
2022-11-19T07:03:06.938Z,4.75
2022-11-19T07:05:33.204Z,4.13
2022-11-19T07:08:02.956Z,3.67
2022-11-19T07:10:29.757Z,4.20
2022-11-19T07:12:56.008Z,3.70
2022-11-19T07:15:22.252Z,3.65
2022-11-19T07:17:48.772Z,3.40
2022-11-19T07:20:15.044Z,4.60
2022-11-19T07:22:42.070Z,4.65
2022-11-19T07:27:34.424Z,5.72
2022-11-19T07:30:00.687Z,4.13
2022-11-19T07:32:27.080Z,6.22
2022-11-19T07:34:53.467Z,5.82
2022-11-19T07:37:19.690Z,4.07
2022-11-19T07:39:46.856Z,4.25
2022-11-19T07:42:31.945Z,4.55
2022-11-19T07:44:58.205Z,4.97
2022-11-19T07:47:24.507Z,6.47
2022-11-19T07:49:50.743Z,6.20
2022-11-19T07:52:16.991Z,5.13
2022-11-19T07:54:43.195Z,5.45
2022-11-19T07:57:09.495Z,6.45
2022-11-19T07:59:35.721Z,6.60
2022-11-19T08:02:02.161Z,6.45
2022-11-19T08:04:28.939Z,5.55
2022-11-19T08:06:55.212Z,8.93
2022-11-19T08:09:21.808Z,9.40
2022-11-19T08:11:48.444Z,9.27
2022-11-19T08:14:14.687Z,6.95
2022-11-19T08:16:59.381Z,8.68
2022-11-19T08:19:25.643Z,10.00
2022-11-19T08:21:51.897Z,6.88
2022-11-19T08:24:19.792Z,10.00
2022-11-19T08:26:47.156Z,10.60
2022-11-19T08:29:16.463Z,18.23
2022-11-19T08:31:44.328Z,6.60
2022-11-19T08:34:10.562Z,5.20
2022-11-19T08:36:36.802Z,4.50
2022-11-19T08:39:04.056Z,4.38
2022-11-19T08:41:49.111Z,8.27
2022-11-19T08:44:15.369Z,6.97
2022-11-19T08:46:41.628Z,7.35
2022-11-19T08:49:07.853Z,6.05
2022-11-19T08:51:34.430Z,5.93
2022-11-19T08:54:00.663Z,6.65
2022-11-19T08:56:26.897Z,7.72
2022-11-19T08:58:58.518Z,12.20
2022-11-19T09:01:27.603Z,13.13
2022-11-19T09:03:53.833Z,8.38
2022-11-19T09:06:20.066Z,20.08
2022-11-19T09:08:46.312Z,17.55
2022-11-19T09:11:14.311Z,23.23
2022-11-19T09:13:40.811Z,10.68
2022-11-19T09:16:07.594Z,10.77
2022-11-19T09:18:33.942Z,9.73
2022-11-19T09:21:00.212Z,7.03
2022-11-19T09:23:27.137Z,15.32
2022-11-19T09:26:07.361Z,9.77
2022-11-19T09:28:33.997Z,4.18
2022-11-19T09:31:00.187Z,4.40
2022-11-19T09:33:26.941Z,3.78
2022-11-19T09:35:53.205Z,3.70
2022-11-19T09:38:20.190Z,4.18
2022-11-19T09:43:17.522Z,3.50
2022-11-19T09:46:02.549Z,3.10
2022-11-19T09:48:31.959Z,3.28
2022-11-19T09:51:00.821Z,4.05
2022-11-19T09:53:30.266Z,4.82
2022-11-19T09:55:57.189Z,5.00
2022-11-19T10:00:49.647Z,7.88
2022-11-19T10:03:17.205Z,14.45
2022-11-19T10:06:02.186Z,8.40
2022-11-19T10:08:34.569Z,12.95
2022-11-19T10:11:00.798Z,18.80
2022-11-19T10:13:46.101Z,16.63
2022-11-19T10:16:15.122Z,14.95
2022-11-19T10:19:01.652Z,9.80
2022-11-19T10:21:42.290Z,11.35
2022-11-19T10:24:11.388Z,10.82
2022-11-19T10:26:40.175Z,9.95
2022-11-19T10:29:20.610Z,8.30
2022-11-19T10:31:48.064Z,7.43
2022-11-19T10:34:28.736Z,10.52
2022-11-19T10:36:57.495Z,6.95
2022-11-19T10:39:32.450Z,6.72
2022-11-19T10:42:18.995Z,6.95
2022-11-19T10:44:53.677Z,8.45
2022-11-19T10:47:22.314Z,6.90
2022-11-19T10:49:55.070Z,9.95
2022-11-19T10:52:40.993Z,8.65
2022-11-19T10:55:24.191Z,9.98
2022-11-19T10:58:04.292Z,9.98
2022-11-19T11:00:30.752Z,10.35
2022-11-19T11:03:04.320Z,14.15
2022-11-19T11:05:31.047Z,13.10
2022-11-19T11:08:03.230Z,11.48
2022-11-19T11:10:29.554Z,9.38
2022-11-19T11:13:16.479Z,9.40
2022-11-19T11:15:47.221Z,8.25
2022-11-19T11:18:15.006Z,9.32
2022-11-19T11:20:51.047Z,10.25
2022-11-19T11:23:27.490Z,8.88
2022-11-19T11:25:53.703Z,9.45
2022-11-19T11:28:21.396Z,11.15
2022-11-19T11:30:58.375Z,10.05
2022-11-19T11:33:24.566Z,10.63
2022-11-19T11:35:51.782Z,8.20
2022-11-19T11:38:22.273Z,7.85
2022-11-19T11:41:48.497Z,10.13
2022-11-19T11:44:04.028Z,7.90
2022-11-19T11:46:41.898Z,7.85
2022-11-19T11:49:12.910Z,8.50
2022-11-19T11:51:39.757Z,7.35
2022-11-19T11:54:26.234Z,6.20
2022-11-19T11:56:52.474Z,7.07
2022-11-19T11:59:26.967Z,7.15
2022-11-19T12:01:57.026Z,6.60
2022-11-19T12:04:23.602Z,9.23
2022-11-19T12:06:55.365Z,8.30
2022-11-19T12:09:31.199Z,5.88
2022-11-19T12:11:59.970Z,6.70
2022-11-19T12:14:49.269Z,7.05
2022-11-19T12:17:15.556Z,6.65
2022-11-19T12:19:47.824Z,6.82
2022-11-19T12:22:24.089Z,6.93
2022-11-19T12:25:02.455Z,7.05
2022-11-19T12:27:38.122Z,6.55
2022-11-19T12:30:07.722Z,6.78
2022-11-19T12:32:47.332Z,7.15
2022-11-19T12:35:18.935Z,6.65
2022-11-19T12:37:45.184Z,6.60
2022-11-19T12:40:11.545Z,7.10
2022-11-19T12:42:40.696Z,6.95
2022-11-19T12:45:19.254Z,6.97
2022-11-19T12:47:54.399Z,7.00
2022-11-19T12:50:30.081Z,6.25
2022-11-19T12:53:04.321Z,5.93
2022-11-19T12:55:42.779Z,6.20
2022-11-19T12:58:29.541Z,6.03
2022-11-19T13:00:58.681Z,9.15
2022-11-19T13:03:48.048Z,7.53
2022-11-19T13:06:18.172Z,8.13
2022-11-19T13:08:44.522Z,6.20
2022-11-19T13:11:14.532Z,6.53
2022-11-19T13:13:43.995Z,6.57
2022-11-19T13:16:11.518Z,6.97
2022-11-19T13:18:39.619Z,7.20
2022-11-19T13:21:07.331Z,4.78
2022-11-19T13:23:37.310Z,6.13
2022-11-19T13:26:09.313Z,5.32
2022-11-19T13:28:37.774Z,5.35
2022-11-19T13:31:24.246Z,4.45
2022-11-19T13:33:52.575Z,5.32
2022-11-19T13:36:22.754Z,4.40
2022-11-19T13:38:54.734Z,4.65
2022-11-19T13:41:31.632Z,4.65
2022-11-19T13:44:16.925Z,5.50
2022-11-19T13:46:56.364Z,4.45
2022-11-19T13:49:22.795Z,5.68
2022-11-19T13:51:51.286Z,4.10
2022-11-19T13:54:22.791Z,4.32
2022-11-19T13:56:49.831Z,4.40
2022-11-19T13:59:30.029Z,4.72
2022-11-19T14:02:11.616Z,4.60
2022-11-19T14:04:44.425Z,10.13
2022-11-19T14:07:13.708Z,4.72
2022-11-19T14:09:51.967Z,5.03
2022-11-19T14:12:31.723Z,5.00
2022-11-19T14:15:19.700Z,4.82
2022-11-19T14:18:23.258Z,4.65
2022-11-19T14:21:08.146Z,5.78
2022-11-19T14:24:08.078Z,7.20
2022-11-19T14:26:40.166Z,7.68
2022-11-19T14:29:15.670Z,6.10
2022-11-19T14:32:14.542Z,7.43
2022-11-19T14:34:40.759Z,8.13
2022-11-19T14:37:21.159Z,5.45
2022-11-19T14:39:51.821Z,7.10
2022-11-19T14:42:19.267Z,5.97
2022-11-19T14:44:46.302Z,5.28
2022-11-19T14:47:27.455Z,5.60
2022-11-19T14:49:56.537Z,5.60
2022-11-19T14:52:24.967Z,5.78
2022-11-19T14:55:14.341Z,6.70
2022-11-19T14:57:42.060Z,7.47
2022-11-19T15:00:14.577Z,5.15
2022-11-19T15:02:45.654Z,13.52
2022-11-19T15:05:17.933Z,37.13
2022-11-19T15:07:49.034Z,8.18
2022-11-19T15:10:22.177Z,9.02
2022-11-19T15:12:50.322Z,8.40
2022-11-19T15:15:19.314Z,7.90
2022-11-19T15:18:02.235Z,5.78
2022-11-19T15:20:34.966Z,5.22
2022-11-19T15:23:30.491Z,6.00
2022-11-19T15:26:17.474Z,6.18
2022-11-19T15:29:00.992Z,7.00
2022-11-19T15:31:44.039Z,6.78
2022-11-19T15:34:56.050Z,6.80
2022-11-19T15:37:30.057Z,7.10
2022-11-19T15:39:57.079Z,8.45
2022-11-19T15:42:34.472Z,6.50
2022-11-19T15:45:04.722Z,6.85
2022-11-19T15:47:49.904Z,6.68
2022-11-19T15:50:23.304Z,10.35
2022-11-19T15:52:59.955Z,17.45
2022-11-19T15:55:28.813Z,11.37
2022-11-19T15:57:56.617Z,10.10
2022-11-19T16:00:23.091Z,10.82
2022-11-19T16:02:50.964Z,11.90
2022-11-19T16:05:20.233Z,30.35
2022-11-19T16:07:48.569Z,14.73
2022-11-19T16:10:20.618Z,9.27
2022-11-19T16:13:12.167Z,10.93
2022-11-19T16:15:56.871Z,8.88
2022-11-19T16:18:23.147Z,9.52
2022-11-19T16:20:50.815Z,9.30
2022-11-19T16:23:19.111Z,10.25
2022-11-19T16:25:45.916Z,9.70
2022-11-19T16:28:13.344Z,11.30
2022-11-19T16:30:42.668Z,12.73
2022-11-19T16:33:19.337Z,10.98
2022-11-19T16:35:51.256Z,10.77
2022-11-19T16:38:23.797Z,11.02
2022-11-19T16:41:08.537Z,11.18
2022-11-19T16:43:35.633Z,14.40
2022-11-19T16:46:02.148Z,11.15
2022-11-19T16:48:48.321Z,11.95
2022-11-19T16:51:41.085Z,14.77
2022-11-19T16:54:10.874Z,13.38
2022-11-19T16:56:46.255Z,11.90
2022-11-19T16:59:17.742Z,12.57
2022-11-19T17:01:49.967Z,11.20
2022-11-19T17:04:16.302Z,9.32
2022-11-19T17:06:42.535Z,9.70
2022-11-19T17:09:27.829Z,10.18
2022-11-19T17:12:12.997Z,8.75
2022-11-19T17:14:39.212Z,11.10
2022-11-19T17:17:22.657Z,15.52
2022-11-19T17:19:49.005Z,11.05
2022-11-19T17:22:21.445Z,9.75
2022-11-19T17:24:47.704Z,12.75
2022-11-19T17:27:25.965Z,13.65
2022-11-19T17:29:56.591Z,14.13
2022-11-19T17:32:22.864Z,21.52
2022-11-19T17:34:49.969Z,14.73
2022-11-19T17:37:16.219Z,15.73
2022-11-19T17:39:42.456Z,12.68
2022-11-19T17:42:27.378Z,13.50
2022-11-19T17:44:53.619Z,13.80
2022-11-19T17:47:23.496Z,11.65
2022-11-19T17:49:50.434Z,10.50
2022-11-19T17:52:24.227Z,10.52
2022-11-19T17:54:51.128Z,10.07
2022-11-19T17:59:43.593Z,10.02
2022-11-19T18:02:20.119Z,7.97
2022-11-19T18:04:47.240Z,10.48
2022-11-19T18:07:13.928Z,26.55
2022-11-19T18:09:40.732Z,12.70
2022-11-19T18:12:07.806Z,18.83
2022-11-19T18:14:34.067Z,14.25
2022-11-19T18:17:00.307Z,11.90
2022-11-19T18:19:28.399Z,12.23
2022-11-19T18:21:54.984Z,17.30
2022-11-19T18:24:21.312Z,14.45
2022-11-19T18:26:47.538Z,11.13
2022-11-19T18:29:13.761Z,10.55
2022-11-19T18:31:44.347Z,9.55
2022-11-19T18:34:16.032Z,10.07
2022-11-19T18:36:42.296Z,9.70
2022-11-19T18:39:08.540Z,9.10
2022-11-19T18:41:34.918Z,9.73
2022-11-19T18:44:19.966Z,8.52
2022-11-19T18:46:46.207Z,8.52
2022-11-19T18:49:12.467Z,8.90
2022-11-19T18:51:39.032Z,9.55
2022-11-19T18:54:05.365Z,10.02
2022-11-19T18:56:31.606Z,8.73
2022-11-19T18:59:01.820Z,9.13
2022-11-19T19:01:31.181Z,10.95
2022-11-19T19:03:57.460Z,8.82
2022-11-19T19:06:24.954Z,9.30
2022-11-19T19:08:51.756Z,10.52
2022-11-19T19:11:36.349Z,9.48
2022-11-19T19:14:03.159Z,9.35
2022-11-19T19:16:30.338Z,8.88
2022-11-19T19:18:56.630Z,9.48
2022-11-19T19:21:23.209Z,10.48
2022-11-19T19:23:49.794Z,10.20
2022-11-19T19:26:16.766Z,9.45
2022-11-19T19:31:12.422Z,9.40
2022-11-19T19:33:42.733Z,11.00
2022-11-19T19:36:09.084Z,12.52
2022-11-19T19:38:35.335Z,11.77
2022-11-19T19:41:05.387Z,16.02
2022-11-19T19:43:31.752Z,14.77
2022-11-19T19:46:08.768Z,15.13
2022-11-19T19:48:35.549Z,15.40
2022-11-19T19:51:02.111Z,12.90
2022-11-19T19:53:28.342Z,12.85
2022-11-19T19:56:01.660Z,11.55
2022-11-19T19:58:28.336Z,11.48
2022-11-19T20:00:54.643Z,12.38
2022-11-19T20:03:25.087Z,10.93
2022-11-19T20:05:51.367Z,11.00
2022-11-19T20:08:17.593Z,11.95
2022-11-19T20:10:43.897Z,13.00
2022-11-19T20:13:28.563Z,14.10
2022-11-19T20:15:55.511Z,15.35
2022-11-19T20:20:47.937Z,12.05
2022-11-19T20:23:14.171Z,10.82
2022-11-19T20:25:40.445Z,12.43
2022-11-19T20:28:06.691Z,11.65
2022-11-19T20:30:32.955Z,12.30
2022-11-19T20:32:59.214Z,12.02
2022-11-19T20:35:25.604Z,11.63
2022-11-19T20:37:51.846Z,12.98
2022-11-19T20:40:18.128Z,12.82
2022-11-19T20:43:03.062Z,13.35
2022-11-19T20:45:29.299Z,12.68
2022-11-19T20:47:55.589Z,12.73
2022-11-19T20:50:21.825Z,14.13
2022-11-19T20:52:48.087Z,14.18
2022-11-19T20:55:14.347Z,12.27
2022-11-19T20:57:40.605Z,13.77
2022-11-19T21:00:07.246Z,15.25
2022-11-19T21:02:33.526Z,23.27
2022-11-19T21:04:59.902Z,15.27
2022-11-19T21:07:26.251Z,15.52
2022-11-19T21:09:52.757Z,14.23
2022-11-19T21:12:18.976Z,17.27
2022-11-19T21:14:46.333Z,13.95
2022-11-19T21:17:12.563Z,13.32
2022-11-19T21:19:39.614Z,12.65
2022-11-19T21:22:05.835Z,13.45
2022-11-19T21:24:32.062Z,12.80
2022-11-19T21:26:58.295Z,15.95
2022-11-19T21:29:24.597Z,12.82
2022-11-19T21:31:50.938Z,20.92
2022-11-19T21:34:18.106Z,14.60
2022-11-19T21:36:45.079Z,13.48
2022-11-19T21:41:37.580Z,11.27
2022-11-19T21:44:04.507Z,17.77
2022-11-19T21:48:56.923Z,21.38
2022-11-19T21:51:25.213Z,13.15
2022-11-19T21:53:55.381Z,14.60
2022-11-19T21:56:21.729Z,14.50
2022-11-19T21:58:47.978Z,13.27
2022-11-19T22:01:14.476Z,15.07
2022-11-19T22:03:40.750Z,15.57
2022-11-19T22:06:08.298Z,14.90
2022-11-19T22:08:36.040Z,12.55
2022-11-19T22:11:25.771Z,13.68
2022-11-19T22:13:52.587Z,14.80
2022-11-19T22:16:19.050Z,15.00
2022-11-19T22:18:45.297Z,14.85
2022-11-19T22:21:11.854Z,15.75
2022-11-19T22:23:38.238Z,14.75
2022-11-19T22:26:05.331Z,13.30
2022-11-19T22:28:31.621Z,12.95
2022-11-19T22:30:57.898Z,14.05
2022-11-19T22:33:24.123Z,16.30
2022-11-19T22:35:50.370Z,15.57
2022-11-19T22:38:16.660Z,19.65
2022-11-19T22:40:42.898Z,15.15
2022-11-19T22:43:09.132Z,19.05
2022-11-19T22:45:35.448Z,23.20
2022-11-19T22:48:01.712Z,13.25
2022-11-19T22:50:27.953Z,15.32
2022-11-19T22:52:54.175Z,13.57
2022-11-19T22:55:20.449Z,15.20
2022-11-19T22:57:46.657Z,17.33
2022-11-19T23:00:13.175Z,14.43
2022-11-19T23:02:39.417Z,14.73
2022-11-19T23:05:05.904Z,16.88
2022-11-19T23:07:33.408Z,21.65
2022-11-19T23:09:59.695Z,20.27
2022-11-19T23:12:44.523Z,20.90
2022-11-19T23:15:10.746Z,12.35
2022-11-19T23:17:43.540Z,13.07
2022-11-19T23:20:10.093Z,14.20
2022-11-19T23:22:36.336Z,14.90
2022-11-19T23:25:02.762Z,16.20
2022-11-19T23:27:28.986Z,15.48
2022-11-19T23:29:55.232Z,16.52
2022-11-19T23:32:21.454Z,11.93
2022-11-19T23:34:47.921Z,19.30
2022-11-19T23:37:14.169Z,14.63
2022-11-19T23:39:40.431Z,15.27
2022-11-19T23:42:06.690Z,12.50
2022-11-19T23:44:32.901Z,12.98
2022-11-19T23:46:59.137Z,12.50
2022-11-19T23:49:25.354Z,13.07
2022-11-19T23:51:51.587Z,12.75
2022-11-19T23:54:17.821Z,12.90
2022-11-19T23:56:44.105Z,12.77
2022-11-19T23:59:10.386Z,13.48
